This is the latest recevied weather packets stored in our database for station/object N8QQQ. If no packets are shown the sender has not sent any weather packets the latest 1 day(s).
| Time | Temp. | Humidity | Pressure | Rain* | Wind** | Luminosity | Snow |
|---|---|---|---|---|---|---|---|
| 1778099292 | 3.33° C | 57% | 1011.7 hPa | 0 mm | - | 63 W/m² | - |
| 1778098383 | 3.89° C | 57% | 1011.9 hPa | 0 mm | - | 92 W/m² | - |
| 1778098080 | 3.33° C | 56% | 1011.8 hPa | 0 mm | - | 154 W/m² | - |
| 1778097472 | 3.33° C | 58% | 1011.9 hPa | 0 mm | - | 165 W/m² | - |
| 1778097169 | 2.78° C | 62% | 1011.9 hPa | 0 mm | - | 130 W/m² | - |
| 1778095957 | 3.89° C | 54% | 1011.7 hPa | 0 mm | - | 160 W/m² | - |
| 1778095653 | 3.89° C | 54% | 1011.8 hPa | 0 mm | - | 196 W/m² | - |
| 1778095350 | 3.89° C | 53% | 1012 hPa | 0 mm | - | 182 W/m² | - |
| 1778095047 | 3.33° C | 56% | 1011.8 hPa | 0 mm | - | 147 W/m² | - |
| 1778094743 | 3.33° C | 56% | 1011.9 hPa | 0 mm | - | 137 W/m² | - |
| 1778093530 | 3.89° C | 55% | 1011.8 hPa | 0 mm | - | 83 W/m² | - |
| 1778092925 | 3.89° C | 54% | 1011.7 hPa | 0 mm | - | 139 W/m² | - |
| 1778091404 | 3.89° C | 52% | 1011.8 hPa | 0 mm | - | 142 W/m² | - |
| 1778090798 | 3.89° C | 53% | 1011.6 hPa | 0 mm | - | 229 W/m² | - |
| 1778089887 | 2.78° C | 58% | 1012 hPa | 0 mm | - | 160 W/m² | - |
| 1778089586 | 2.78° C | 57% | 1011.9 hPa | 0 mm | - | 122 W/m² | - |
| 1778088070 | 2.78° C | 62% | 1011.9 hPa | 0 mm | - | 83 W/m² | - |
| 1778087768 | 2.78° C | 61% | 1012.2 hPa | 0 mm | - | 75 W/m² | - |
| 1778087465 | 3.33° C | 58% | 1011.9 hPa | 0 mm | - | 87 W/m² | - |
| 1778086854 | 2.78° C | 57% | 1011.9 hPa | 0 mm | - | 117 W/m² | - |
| 1778086552 | 2.78° C | 59% | 1012 hPa | 0 mm | - | 117 W/m² | - |
| 1778086248 | 2.78° C | 59% | 1012 hPa | 0 mm | - | 104 W/m² | - |
| 1778085338 | 2.78° C | 58% | 1011.8 hPa | 0 mm | - | 86 W/m² | - |
| 1778083514 | 2.78° C | 61% | 1012 hPa | 0 mm | - | 86 W/m² | - |
| 1778083211 | 2.78° C | 60% | 1011.9 hPa | 0 mm | - | 76 W/m² | - |
* Rain latest hour (hover to see other rain measurements)
** Current wind speed in m/s (hover to see current wind gust speed)